Terminal Aerodrome Forecast
Issued by NWS Tampa Bay Area, FL

Home | Current Version | Previous Version | Text Only | Print | Product List | Glossary On
Versions: 1 2 3 4 5 6 7 8 9 10 11 12 13 14 15 16 17 18
000
FTUS42 KTBW 231728
TAFSRQ
TAF
KSRQ 231728Z 2318/2418 18014KT P6SM FEW025 SCT050 BKN100
     FM232100 22011KT P6SM VCSH SCT030 BKN070
     FM240000 24010KT P6SM SCT025 BKN050
     FM240800 21006KT P6SM SCT015 BKN030
      TEMPO 2409/2413 BKN015 OVC030
     FM241500 26008KT P6SM SCT020 BKN040=

USA.gov is the U.S. government's official web portal to all federal, state and local government web resources and services.